sensor_id;sensor_type;location;lat;lon;timestamp;temperature;humidity
27162;DHT22;54464;50.558;9.704;2023-06-05T00:02:14;15.20;72.70
27162;DHT22;54464;50.558;9.704;2023-06-05T00:04:44;15.20;73.10
27162;DHT22;54464;50.558;9.704;2023-06-05T00:07:09;15.20;73.60
27162;DHT22;54464;50.558;9.704;2023-06-05T00:09:35;15.10;73.90
27162;DHT22;54464;50.558;9.704;2023-06-05T00:12:02;15.10;73.50
27162;DHT22;54464;50.558;9.704;2023-06-05T00:14:28;15.10;73.10
27162;DHT22;54464;50.558;9.704;2023-06-05T00:16:53;15.00;73.10
27162;DHT22;54464;50.558;9.704;2023-06-05T00:19:21;15.00;73.10
27162;DHT22;54464;50.558;9.704;2023-06-05T00:21:50;15.00;72.80
27162;DHT22;54464;50.558;9.704;2023-06-05T00:24:18;15.00;72.80
27162;DHT22;54464;50.558;9.704;2023-06-05T00:26:44;15.00;73.50
27162;DHT22;54464;50.558;9.704;2023-06-05T00:29:15;15.10;73.50
27162;DHT22;54464;50.558;9.704;2023-06-05T00:31:42;15.00;73.20
27162;DHT22;54464;50.558;9.704;2023-06-05T00:34:09;15.00;73.50
27162;DHT22;54464;50.558;9.704;2023-06-05T00:36:34;15.10;74.30
27162;DHT22;54464;50.558;9.704;2023-06-05T00:39:02;15.00;78.40
27162;DHT22;54464;50.558;9.704;2023-06-05T00:41:30;14.50;80.60
27162;DHT22;54464;50.558;9.704;2023-06-05T00:44:10;14.20;82.70
27162;DHT22;54464;50.558;9.704;2023-06-05T00:46:35;14.20;83.00
27162;DHT22;54464;50.558;9.704;2023-06-05T00:49:01;14.20;83.00
27162;DHT22;54464;50.558;9.704;2023-06-05T00:51:35;13.90;82.50
27162;DHT22;54464;50.558;9.704;2023-06-05T00:54:02;13.90;83.60
27162;DHT22;54464;50.558;9.704;2023-06-05T00:56:28;13.70;84.40
27162;DHT22;54464;50.558;9.704;2023-06-05T00:58:54;13.50;85.50
27162;DHT22;54464;50.558;9.704;2023-06-05T01:01:20;13.50;86.20
27162;DHT22;54464;50.558;9.704;2023-06-05T01:03:46;13.30;85.50
27162;DHT22;54464;50.558;9.704;2023-06-05T01:06:13;13.10;86.90
27162;DHT22;54464;50.558;9.704;2023-06-05T01:08:41;13.00;88.40
27162;DHT22;54464;50.558;9.704;2023-06-05T01:11:20;12.90;90.20
27162;DHT22;54464;50.558;9.704;2023-06-05T01:13:57;12.90;90.30
27162;DHT22;54464;50.558;9.704;2023-06-05T01:16:28;12.70;90.80
27162;DHT22;54464;50.558;9.704;2023-06-05T01:19:00;12.50;91.30
27162;DHT22;54464;50.558;9.704;2023-06-05T01:21:32;11.90;92.20
27162;DHT22;54464;50.558;9.704;2023-06-05T01:23:58;11.90;92.40
27162;DHT22;54464;50.558;9.704;2023-06-05T01:26:35;11.60;92.40
27162;DHT22;54464;50.558;9.704;2023-06-05T01:29:07;11.80;92.30
27162;DHT22;54464;50.558;9.704;2023-06-05T01:31:35;12.10;92.10
27162;DHT22;54464;50.558;9.704;2023-06-05T01:34:05;12.10;91.40
27162;DHT22;54464;50.558;9.704;2023-06-05T01:36:32;11.90;91.70
27162;DHT22;54464;50.558;9.704;2023-06-05T01:39:00;12.00;92.10
27162;DHT22;54464;50.558;9.704;2023-06-05T01:41:27;11.80;91.40
27162;DHT22;54464;50.558;9.704;2023-06-05T01:43:53;11.90;92.10
27162;DHT22;54464;50.558;9.704;2023-06-05T01:46:21;12.10;92.10
27162;DHT22;54464;50.558;9.704;2023-06-05T01:48:48;12.30;91.60
27162;DHT22;54464;50.558;9.704;2023-06-05T01:51:13;12.40;91.30
27162;DHT22;54464;50.558;9.704;2023-06-05T01:53:39;12.60;90.60
27162;DHT22;54464;50.558;9.704;2023-06-05T01:56:05;12.60;90.40
27162;DHT22;54464;50.558;9.704;2023-06-05T01:58:33;12.60;89.90
27162;DHT22;54464;50.558;9.704;2023-06-05T02:00:59;12.30;90.60
27162;DHT22;54464;50.558;9.704;2023-06-05T02:03:25;12.20;90.90
27162;DHT22;54464;50.558;9.704;2023-06-05T02:05:50;12.20;90.90
27162;DHT22;54464;50.558;9.704;2023-06-05T02:08:19;12.30;91.00
27162;DHT22;54464;50.558;9.704;2023-06-05T02:10:51;12.30;91.10
27162;DHT22;54464;50.558;9.704;2023-06-05T02:13:18;12.10;91.00
27162;DHT22;54464;50.558;9.704;2023-06-05T02:15:50;12.00;91.20
27162;DHT22;54464;50.558;9.704;2023-06-05T02:18:21;12.00;91.30
27162;DHT22;54464;50.558;9.704;2023-06-05T02:20:53;11.90;91.40
27162;DHT22;54464;50.558;9.704;2023-06-05T02:23:20;12.00;91.50
27162;DHT22;54464;50.558;9.704;2023-06-05T02:25:46;11.90;91.60
27162;DHT22;54464;50.558;9.704;2023-06-05T02:28:11;11.70;92.10
27162;DHT22;54464;50.558;9.704;2023-06-05T02:30:37;11.50;92.60
27162;DHT22;54464;50.558;9.704;2023-06-05T02:33:03;11.50;93.00
27162;DHT22;54464;50.558;9.704;2023-06-05T02:35:29;11.30;93.30
27162;DHT22;54464;50.558;9.704;2023-06-05T02:37:55;11.20;93.70
27162;DHT22;54464;50.558;9.704;2023-06-05T02:40:22;10.80;94.20
27162;DHT22;54464;50.558;9.704;2023-06-05T02:42:47;10.80;94.30
27162;DHT22;54464;50.558;9.704;2023-06-05T02:45:13;11.10;93.90
27162;DHT22;54464;50.558;9.704;2023-06-05T02:47:38;11.20;94.20
27162;DHT22;54464;50.558;9.704;2023-06-05T02:50:06;11.20;94.10
27162;DHT22;54464;50.558;9.704;2023-06-05T02:52:32;11.30;94.10
27162;DHT22;54464;50.558;9.704;2023-06-05T02:55:01;11.30;94.10
27162;DHT22;54464;50.558;9.704;2023-06-05T02:57:31;11.40;94.10
27162;DHT22;54464;50.558;9.704;2023-06-05T02:59:58;11.50;93.80
27162;DHT22;54464;50.558;9.704;2023-06-05T03:02:24;11.60;94.00
27162;DHT22;54464;50.558;9.704;2023-06-05T03:04:52;11.30;94.40
27162;DHT22;54464;50.558;9.704;2023-06-05T03:07:21;11.30;94.40
27162;DHT22;54464;50.558;9.704;2023-06-05T03:09:50;11.00;94.70
27162;DHT22;54464;50.558;9.704;2023-06-05T03:12:16;10.90;94.80
27162;DHT22;54464;50.558;9.704;2023-06-05T03:14:44;11.10;94.90
27162;DHT22;54464;50.558;9.704;2023-06-05T03:17:12;11.20;95.00
27162;DHT22;54464;50.558;9.704;2023-06-05T03:19:38;11.30;94.80
27162;DHT22;54464;50.558;9.704;2023-06-05T03:22:04;11.40;94.90
27162;DHT22;54464;50.558;9.704;2023-06-05T03:24:30;11.40;94.80
27162;DHT22;54464;50.558;9.704;2023-06-05T03:26:58;11.40;94.90
27162;DHT22;54464;50.558;9.704;2023-06-05T03:29:29;11.40;94.80
27162;DHT22;54464;50.558;9.704;2023-06-05T03:31:55;11.10;95.20
27162;DHT22;54464;50.558;9.704;2023-06-05T03:34:21;11.10;95.40
27162;DHT22;54464;50.558;9.704;2023-06-05T03:36:51;11.00;95.50
27162;DHT22;54464;50.558;9.704;2023-06-05T03:39:17;11.00;95.80
27162;DHT22;54464;50.558;9.704;2023-06-05T03:41:46;11.00;95.70
27162;DHT22;54464;50.558;9.704;2023-06-05T03:44:11;10.80;95.90
27162;DHT22;54464;50.558;9.704;2023-06-05T03:46:46;10.50;96.40
27162;DHT22;54464;50.558;9.704;2023-06-05T03:49:12;10.50;96.70
27162;DHT22;54464;50.558;9.704;2023-06-05T03:51:37;10.50;97.00
27162;DHT22;54464;50.558;9.704;2023-06-05T03:54:05;10.60;96.60
27162;DHT22;54464;50.558;9.704;2023-06-05T03:56:31;10.80;96.40
27162;DHT22;54464;50.558;9.704;2023-06-05T03:59:17;10.80;96.30
27162;DHT22;54464;50.558;9.704;2023-06-05T04:01:47;10.90;96.10
27162;DHT22;54464;50.558;9.704;2023-06-05T04:04:13;11.00;96.00
27162;DHT22;54464;50.558;9.704;2023-06-05T04:06:39;10.90;96.10
27162;DHT22;54464;50.558;9.704;2023-06-05T04:09:11;10.90;96.10
27162;DHT22;54464;50.558;9.704;2023-06-05T04:11:41;10.70;96.40
27162;DHT22;54464;50.558;9.704;2023-06-05T04:14:08;10.80;96.50
27162;DHT22;54464;50.558;9.704;2023-06-05T04:16:38;10.70;96.70
27162;DHT22;54464;50.558;9.704;2023-06-05T04:19:12;10.60;96.90
27162;DHT22;54464;50.558;9.704;2023-06-05T04:21:41;10.60;97.00
27162;DHT22;54464;50.558;9.704;2023-06-05T04:24:08;10.20;97.70
27162;DHT22;54464;50.558;9.704;2023-06-05T04:26:36;10.40;97.70
27162;DHT22;54464;50.558;9.704;2023-06-05T04:29:05;10.50;97.50
27162;DHT22;54464;50.558;9.704;2023-06-05T04:31:45;10.70;97.20
27162;DHT22;54464;50.558;9.704;2023-06-05T04:34:11;10.70;97.00
27162;DHT22;54464;50.558;9.704;2023-06-05T04:36:46;10.60;97.20
27162;DHT22;54464;50.558;9.704;2023-06-05T04:39:15;10.50;97.30
27162;DHT22;54464;50.558;9.704;2023-06-05T04:42:01;10.50;97.50
27162;DHT22;54464;50.558;9.704;2023-06-05T04:44:32;10.70;97.30
27162;DHT22;54464;50.558;9.704;2023-06-05T04:46:58;10.80;97.00
27162;DHT22;54464;50.558;9.704;2023-06-05T04:49:24;10.80;97.10
27162;DHT22;54464;50.558;9.704;2023-06-05T04:51:49;10.30;97.40
27162;DHT22;54464;50.558;9.704;2023-06-05T04:54:15;10.10;98.10
27162;DHT22;54464;50.558;9.704;2023-06-05T04:56:44;9.80;98.60
27162;DHT22;54464;50.558;9.704;2023-06-05T04:59:17;10.10;98.40
27162;DHT22;54464;50.558;9.704;2023-06-05T05:01:43;10.40;98.00
27162;DHT22;54464;50.558;9.704;2023-06-05T05:04:09;10.50;97.60
27162;DHT22;54464;50.558;9.704;2023-06-05T05:06:42;10.50;97.50
27162;DHT22;54464;50.558;9.704;2023-06-05T05:09:18;10.10;98.40
27162;DHT22;54464;50.558;9.704;2023-06-05T05:11:43;10.50;98.10
27162;DHT22;54464;50.558;9.704;2023-06-05T05:14:09;10.60;97.50
27162;DHT22;54464;50.558;9.704;2023-06-05T05:16:34;10.00;98.40
27162;DHT22;54464;50.558;9.704;2023-06-05T05:19:00;10.00;99.00
27162;DHT22;54464;50.558;9.704;2023-06-05T05:21:26;9.90;98.90
27162;DHT22;54464;50.558;9.704;2023-06-05T05:23:51;10.00;99.00
27162;DHT22;54464;50.558;9.704;2023-06-05T05:26:17;10.30;98.70
27162;DHT22;54464;50.558;9.704;2023-06-05T05:28:42;10.30;98.80
27162;DHT22;54464;50.558;9.704;2023-06-05T05:31:08;10.20;98.90
27162;DHT22;54464;50.558;9.704;2023-06-05T05:33:34;10.20;99.20
27162;DHT22;54464;50.558;9.704;2023-06-05T05:36:11;10.30;99.50
27162;DHT22;54464;50.558;9.704;2023-06-05T05:38:38;10.40;98.80
27162;DHT22;54464;50.558;9.704;2023-06-05T05:41:03;10.70;98.50
27162;DHT22;54464;50.558;9.704;2023-06-05T05:43:32;10.90;98.50
27162;DHT22;54464;50.558;9.704;2023-06-05T05:45:57;11.10;98.10
27162;DHT22;54464;50.558;9.704;2023-06-05T05:48:23;11.30;97.40
27162;DHT22;54464;50.558;9.704;2023-06-05T05:50:51;11.50;97.20
27162;DHT22;54464;50.558;9.704;2023-06-05T05:53:17;11.70;96.90
27162;DHT22;54464;50.558;9.704;2023-06-05T05:55:42;11.70;96.70
27162;DHT22;54464;50.558;9.704;2023-06-05T05:58:08;11.80;96.70
27162;DHT22;54464;50.558;9.704;2023-06-05T06:00:33;11.80;96.80
27162;DHT22;54464;50.558;9.704;2023-06-05T06:02:59;11.80;96.70
27162;DHT22;54464;50.558;9.704;2023-06-05T06:05:28;12.00;96.40
27162;DHT22;54464;50.558;9.704;2023-06-05T06:07:57;12.00;96.60
27162;DHT22;54464;50.558;9.704;2023-06-05T06:10:23;12.30;96.60
27162;DHT22;54464;50.558;9.704;2023-06-05T06:12:48;12.20;96.50
27162;DHT22;54464;50.558;9.704;2023-06-05T06:15:14;12.30;96.30
27162;DHT22;54464;50.558;9.704;2023-06-05T06:17:40;12.30;96.40
27162;DHT22;54464;50.558;9.704;2023-06-05T06:20:06;12.50;96.30
27162;DHT22;54464;50.558;9.704;2023-06-05T06:22:32;12.50;96.20
27162;DHT22;54464;50.558;9.704;2023-06-05T06:24:58;12.60;95.90
27162;DHT22;54464;50.558;9.704;2023-06-05T06:27:23;12.60;95.80
27162;DHT22;54464;50.558;9.704;2023-06-05T06:29:50;12.80;95.70
27162;DHT22;54464;50.558;9.704;2023-06-05T06:32:19;12.80;95.90
27162;DHT22;54464;50.558;9.704;2023-06-05T06:34:45;13.00;95.90
27162;DHT22;54464;50.558;9.704;2023-06-05T06:37:13;13.20;95.60
27162;DHT22;54464;50.558;9.704;2023-06-05T06:39:43;13.20;95.10
27162;DHT22;54464;50.558;9.704;2023-06-05T06:42:10;13.40;95.00
27162;DHT22;54464;50.558;9.704;2023-06-05T06:44:36;13.40;95.20
27162;DHT22;54464;50.558;9.704;2023-06-05T06:47:02;13.60;95.10
27162;DHT22;54464;50.558;9.704;2023-06-05T06:49:28;13.70;95.40
27162;DHT22;54464;50.558;9.704;2023-06-05T06:51:53;13.80;95.30
27162;DHT22;54464;50.558;9.704;2023-06-05T06:54:19;13.90;95.20
27162;DHT22;54464;50.558;9.704;2023-06-05T06:56:45;14.00;95.10
27162;DHT22;54464;50.558;9.704;2023-06-05T06:59:14;14.20;94.50
27162;DHT22;54464;50.558;9.704;2023-06-05T07:01:44;14.30;93.60
27162;DHT22;54464;50.558;9.704;2023-06-05T07:04:11;14.60;92.80
27162;DHT22;54464;50.558;9.704;2023-06-05T07:06:38;14.70;93.40
27162;DHT22;54464;50.558;9.704;2023-06-05T07:09:03;14.90;94.10
27162;DHT22;54464;50.558;9.704;2023-06-05T07:11:29;15.00;94.00
27162;DHT22;54464;50.558;9.704;2023-06-05T07:13:55;15.10;93.90
27162;DHT22;54464;50.558;9.704;2023-06-05T07:16:20;15.20;93.20
27162;DHT22;54464;50.558;9.704;2023-06-05T07:18:46;15.30;93.00
27162;DHT22;54464;50.558;9.704;2023-06-05T07:21:12;15.50;93.50
27162;DHT22;54464;50.558;9.704;2023-06-05T07:23:38;15.70;91.70
27162;DHT22;54464;50.558;9.704;2023-06-05T07:26:04;15.90;91.00
27162;DHT22;54464;50.558;9.704;2023-06-05T07:28:30;16.10;90.40
27162;DHT22;54464;50.558;9.704;2023-06-05T07:30:55;16.20;91.60
27162;DHT22;54464;50.558;9.704;2023-06-05T07:33:21;16.40;91.60
27162;DHT22;54464;50.558;9.704;2023-06-05T07:35:47;16.50;90.40
27162;DHT22;54464;50.558;9.704;2023-06-05T07:38:14;16.60;90.10
27162;DHT22;54464;50.558;9.704;2023-06-05T07:40:40;16.80;90.50
27162;DHT22;54464;50.558;9.704;2023-06-05T07:43:05;16.90;90.80
27162;DHT22;54464;50.558;9.704;2023-06-05T07:45:31;17.00;90.30
27162;DHT22;54464;50.558;9.704;2023-06-05T07:47:57;17.20;91.00
27162;DHT22;54464;50.558;9.704;2023-06-05T07:50:22;17.30;90.40
27162;DHT22;54464;50.558;9.704;2023-06-05T07:52:48;17.40;89.60
27162;DHT22;54464;50.558;9.704;2023-06-05T07:55:14;17.50;90.90
27162;DHT22;54464;50.558;9.704;2023-06-05T07:57:40;17.70;90.30
27162;DHT22;54464;50.558;9.704;2023-06-05T08:00:06;17.90;90.70
27162;DHT22;54464;50.558;9.704;2023-06-05T08:02:36;18.10;90.60
27162;DHT22;54464;50.558;9.704;2023-06-05T08:05:03;18.40;90.40
27162;DHT22;54464;50.558;9.704;2023-06-05T08:07:28;18.40;87.80
27162;DHT22;54464;50.558;9.704;2023-06-05T08:09:54;18.60;88.20
27162;DHT22;54464;50.558;9.704;2023-06-05T08:12:19;18.60;86.60
27162;DHT22;54464;50.558;9.704;2023-06-05T08:14:45;18.60;87.10
27162;DHT22;54464;50.558;9.704;2023-06-05T08:17:11;18.80;87.70
27162;DHT22;54464;50.558;9.704;2023-06-05T08:19:36;18.90;88.10
27162;DHT22;54464;50.558;9.704;2023-06-05T08:22:02;18.90;86.10
27162;DHT22;54464;50.558;9.704;2023-06-05T08:24:30;19.10;88.90
27162;DHT22;54464;50.558;9.704;2023-06-05T08:26:57;19.30;85.80
27162;DHT22;54464;50.558;9.704;2023-06-05T08:29:24;19.40;83.80
27162;DHT22;54464;50.558;9.704;2023-06-05T08:31:50;19.50;85.10
27162;DHT22;54464;50.558;9.704;2023-06-05T08:34:16;19.70;83.30
27162;DHT22;54464;50.558;9.704;2023-06-05T08:36:41;19.80;82.80
27162;DHT22;54464;50.558;9.704;2023-06-05T08:39:08;20.00;81.50
27162;DHT22;54464;50.558;9.704;2023-06-05T08:41:35;20.10;81.50
27162;DHT22;54464;50.558;9.704;2023-06-05T08:44:02;20.20;80.30
27162;DHT22;54464;50.558;9.704;2023-06-05T08:46:30;20.20;79.50
27162;DHT22;54464;50.558;9.704;2023-06-05T08:48:57;20.40;81.50
27162;DHT22;54464;50.558;9.704;2023-06-05T08:51:23;20.50;78.70
27162;DHT22;54464;50.558;9.704;2023-06-05T08:53:57;20.60;76.30
27162;DHT22;54464;50.558;9.704;2023-06-05T08:56:26;20.60;77.90
27162;DHT22;54464;50.558;9.704;2023-06-05T08:58:53;20.70;76.40
27162;DHT22;54464;50.558;9.704;2023-06-05T09:01:19;20.70;76.90
27162;DHT22;54464;50.558;9.704;2023-06-05T09:03:45;20.80;77.70
27162;DHT22;54464;50.558;9.704;2023-06-05T09:06:11;20.90;78.10
27162;DHT22;54464;50.558;9.704;2023-06-05T09:08:36;21.10;76.20
27162;DHT22;54464;50.558;9.704;2023-06-05T09:11:28;21.10;73.90
27162;DHT22;54464;50.558;9.704;2023-06-05T09:13:57;21.20;73.40
27162;DHT22;54464;50.558;9.704;2023-06-05T09:16:36;21.30;75.90
27162;DHT22;54464;50.558;9.704;2023-06-05T09:19:03;21.40;74.90
27162;DHT22;54464;50.558;9.704;2023-06-05T09:21:29;21.30;72.40
27162;DHT22;54464;50.558;9.704;2023-06-05T09:24:19;21.40;74.20
27162;DHT22;54464;50.558;9.704;2023-06-05T09:27:05;21.50;74.30
27162;DHT22;54464;50.558;9.704;2023-06-05T09:29:36;21.60;73.00
27162;DHT22;54464;50.558;9.704;2023-06-05T09:32:08;21.70;72.70
27162;DHT22;54464;50.558;9.704;2023-06-05T09:34:35;21.80;70.90
27162;DHT22;54464;50.558;9.704;2023-06-05T09:37:03;21.90;72.90
27162;DHT22;54464;50.558;9.704;2023-06-05T09:39:30;22.00;73.40
27162;DHT22;54464;50.558;9.704;2023-06-05T09:41:57;22.00;73.10
27162;DHT22;54464;50.558;9.704;2023-06-05T09:44:25;22.10;71.10
27162;DHT22;54464;50.558;9.704;2023-06-05T09:46:54;22.20;69.60
27162;DHT22;54464;50.558;9.704;2023-06-05T09:49:31;22.20;69.10
27162;DHT22;54464;50.558;9.704;2023-06-05T09:51:58;22.40;68.50
27162;DHT22;54464;50.558;9.704;2023-06-05T09:54:27;22.50;68.90
27162;DHT22;54464;50.558;9.704;2023-06-05T09:57:02;22.60;66.70
27162;DHT22;54464;50.558;9.704;2023-06-05T09:59:29;22.70;69.60
27162;DHT22;54464;50.558;9.704;2023-06-05T10:01:56;22.80;65.90
27162;DHT22;54464;50.558;9.704;2023-06-05T10:04:24;22.90;63.60
27162;DHT22;54464;50.558;9.704;2023-06-05T10:06:54;23.00;63.10
27162;DHT22;54464;50.558;9.704;2023-06-05T10:09:20;23.10;65.40
27162;DHT22;54464;50.558;9.704;2023-06-05T10:11:49;23.10;66.20
27162;DHT22;54464;50.558;9.704;2023-06-05T10:14:16;23.00;67.20
27162;DHT22;54464;50.558;9.704;2023-06-05T10:16:42;23.10;68.20
27162;DHT22;54464;50.558;9.704;2023-06-05T10:19:09;23.20;63.80
27162;DHT22;54464;50.558;9.704;2023-06-05T10:21:34;23.30;64.60
27162;DHT22;54464;50.558;9.704;2023-06-05T10:24:02;23.50;64.90
27162;DHT22;54464;50.558;9.704;2023-06-05T10:29:37;23.90;60.90
27162;DHT22;54464;50.558;9.704;2023-06-05T10:32:12;24.10;64.60
27162;DHT22;54464;50.558;9.704;2023-06-05T10:40:37;24.50;62.30
27162;DHT22;54464;50.558;9.704;2023-06-05T10:46:35;24.90;59.50
27162;DHT22;54464;50.558;9.704;2023-06-05T10:49:11;25.40;59.10
27162;DHT22;54464;50.558;9.704;2023-06-05T10:51:49;25.50;59.50
27162;DHT22;54464;50.558;9.704;2023-06-05T10:56:57;25.80;57.30
27162;DHT22;54464;50.558;9.704;2023-06-05T10:59:36;25.70;55.40
27162;DHT22;54464;50.558;9.704;2023-06-05T11:07:24;26.00;53.10
27162;DHT22;54464;50.558;9.704;2023-06-05T11:18:30;26.20;53.50
27162;DHT22;54464;50.558;9.704;2023-06-05T11:20:57;26.80;54.40
27162;DHT22;54464;50.558;9.704;2023-06-05T11:23:24;27.10;52.80
27162;DHT22;54464;50.558;9.704;2023-06-05T11:25:54;27.40;56.30
27162;DHT22;54464;50.558;9.704;2023-06-05T11:28:37;27.40;54.00
27162;DHT22;54464;50.558;9.704;2023-06-05T11:31:04;27.50;53.50
27162;DHT22;54464;50.558;9.704;2023-06-05T11:33:29;27.60;52.00
27162;DHT22;54464;50.558;9.704;2023-06-05T11:36:06;27.30;51.10
27162;DHT22;54464;50.558;9.704;2023-06-05T11:38:32;27.30;53.40
27162;DHT22;54464;50.558;9.704;2023-06-05T11:40:59;27.50;53.00
27162;DHT22;54464;50.558;9.704;2023-06-05T11:43:25;28.00;53.50
27162;DHT22;54464;50.558;9.704;2023-06-05T11:45:57;28.00;52.60
27162;DHT22;54464;50.558;9.704;2023-06-05T11:48:23;28.40;52.20
27162;DHT22;54464;50.558;9.704;2023-06-05T11:51:01;28.80;51.80
27162;DHT22;54464;50.558;9.704;2023-06-05T11:53:29;28.10;49.60
27162;DHT22;54464;50.558;9.704;2023-06-05T11:55:55;29.10;49.50
27162;DHT22;54464;50.558;9.704;2023-06-05T11:58:32;30.30;49.10
27162;DHT22;54464;50.558;9.704;2023-06-05T12:01:13;31.00;47.90
27162;DHT22;54464;50.558;9.704;2023-06-05T12:03:46;31.90;48.50
27162;DHT22;54464;50.558;9.704;2023-06-05T12:06:13;33.50;48.20
27162;DHT22;54464;50.558;9.704;2023-06-05T12:08:40;34.40;44.00
27162;DHT22;54464;50.558;9.704;2023-06-05T12:11:26;33.90;43.60
27162;DHT22;54464;50.558;9.704;2023-06-05T12:13:55;34.80;44.30
27162;DHT22;54464;50.558;9.704;2023-06-05T12:16:33;35.30;42.60
27162;DHT22;54464;50.558;9.704;2023-06-05T12:19:00;36.30;42.40
27162;DHT22;54464;50.558;9.704;2023-06-05T12:21:27;36.50;44.30
27162;DHT22;54464;50.558;9.704;2023-06-05T12:24:01;36.60;43.30
27162;DHT22;54464;50.558;9.704;2023-06-05T12:26:27;36.80;41.90
27162;DHT22;54464;50.558;9.704;2023-06-05T12:29:03;37.40;43.50
27162;DHT22;54464;50.558;9.704;2023-06-05T12:31:34;37.60;40.70
27162;DHT22;54464;50.558;9.704;2023-06-05T12:34:00;37.50;42.00
27162;DHT22;54464;50.558;9.704;2023-06-05T12:36:26;38.40;40.70
27162;DHT22;54464;50.558;9.704;2023-06-05T12:38:54;38.90;41.40
27162;DHT22;54464;50.558;9.704;2023-06-05T12:41:51;38.40;41.00
27162;DHT22;54464;50.558;9.704;2023-06-05T12:44:16;39.50;40.00
27162;DHT22;54464;50.558;9.704;2023-06-05T12:46:42;39.80;38.20
27162;DHT22;54464;50.558;9.704;2023-06-05T12:49:07;39.70;40.40
27162;DHT22;54464;50.558;9.704;2023-06-05T12:51:33;39.90;38.80
27162;DHT22;54464;50.558;9.704;2023-06-05T12:53:59;40.00;37.80
27162;DHT22;54464;50.558;9.704;2023-06-05T12:56:25;40.20;38.20
27162;DHT22;54464;50.558;9.704;2023-06-05T12:58:56;39.30;39.50
27162;DHT22;54464;50.558;9.704;2023-06-05T13:01:22;40.10;36.00
27162;DHT22;54464;50.558;9.704;2023-06-05T13:03:48;39.40;39.90
27162;DHT22;54464;50.558;9.704;2023-06-05T13:06:14;38.40;39.80
27162;DHT22;54464;50.558;9.704;2023-06-05T13:08:40;37.90;41.70
27162;DHT22;54464;50.558;9.704;2023-06-05T13:11:06;37.50;41.60
27162;DHT22;54464;50.558;9.704;2023-06-05T13:13:31;35.10;44.50
27162;DHT22;54464;50.558;9.704;2023-06-05T13:15:58;35.10;42.70
27162;DHT22;54464;50.558;9.704;2023-06-05T13:18:24;35.00;45.50
27162;DHT22;54464;50.558;9.704;2023-06-05T13:20:50;35.10;44.30
27162;DHT22;54464;50.558;9.704;2023-06-05T13:23:15;34.60;44.80
27162;DHT22;54464;50.558;9.704;2023-06-05T13:25:41;34.00;46.00
27162;DHT22;54464;50.558;9.704;2023-06-05T13:28:07;34.00;45.80
27162;DHT22;54464;50.558;9.704;2023-06-05T13:30:32;34.00;45.10
27162;DHT22;54464;50.558;9.704;2023-06-05T13:32:59;33.50;45.30
27162;DHT22;54464;50.558;9.704;2023-06-05T13:35:25;33.10;46.70
27162;DHT22;54464;50.558;9.704;2023-06-05T13:41:13;33.70;45.80
27162;DHT22;54464;50.558;9.704;2023-06-05T13:43:39;33.60;45.80
27162;DHT22;54464;50.558;9.704;2023-06-05T13:46:05;33.20;46.30
27162;DHT22;54464;50.558;9.704;2023-06-05T13:48:30;32.90;49.40
27162;DHT22;54464;50.558;9.704;2023-06-05T13:50:56;33.40;47.30
27162;DHT22;54464;50.558;9.704;2023-06-05T13:53:23;33.40;47.10
27162;DHT22;54464;50.558;9.704;2023-06-05T13:55:49;33.30;45.90
27162;DHT22;54464;50.558;9.704;2023-06-05T13:58:15;33.60;48.10
27162;DHT22;54464;50.558;9.704;2023-06-05T14:00:42;34.00;46.40
27162;DHT22;54464;50.558;9.704;2023-06-05T14:03:08;32.30;46.40
27162;DHT22;54464;50.558;9.704;2023-06-05T14:05:34;33.00;46.00
27162;DHT22;54464;50.558;9.704;2023-06-05T14:08:00;32.70;47.80
27162;DHT22;54464;50.558;9.704;2023-06-05T14:10:26;33.60;45.50
27162;DHT22;54464;50.558;9.704;2023-06-05T14:12:52;34.60;47.30
27162;DHT22;54464;50.558;9.704;2023-06-05T14:15:18;35.50;45.00
27162;DHT22;54464;50.558;9.704;2023-06-05T14:17:46;36.00;45.00
27162;DHT22;54464;50.558;9.704;2023-06-05T14:20:12;35.00;44.60
27162;DHT22;54464;50.558;9.704;2023-06-05T14:22:39;35.10;45.40
27162;DHT22;54464;50.558;9.704;2023-06-05T14:25:05;35.30;47.10
27162;DHT22;54464;50.558;9.704;2023-06-05T14:27:37;37.10;42.70
27162;DHT22;54464;50.558;9.704;2023-06-05T14:30:03;36.20;43.50
27162;DHT22;54464;50.558;9.704;2023-06-05T14:32:28;36.60;42.70
27162;DHT22;54464;50.558;9.704;2023-06-05T14:34:54;37.40;44.90
27162;DHT22;54464;50.558;9.704;2023-06-05T14:37:20;38.40;44.10
27162;DHT22;54464;50.558;9.704;2023-06-05T14:39:45;39.20;42.10
27162;DHT22;54464;50.558;9.704;2023-06-05T14:42:14;38.80;42.50
27162;DHT22;54464;50.558;9.704;2023-06-05T14:44:39;38.80;41.70
27162;DHT22;54464;50.558;9.704;2023-06-05T14:47:08;38.30;41.50
27162;DHT22;54464;50.558;9.704;2023-06-05T14:49:33;39.00;42.10
27162;DHT22;54464;50.558;9.704;2023-06-05T14:52:02;38.90;44.00
27162;DHT22;54464;50.558;9.704;2023-06-05T14:54:28;39.50;43.50
27162;DHT22;54464;50.558;9.704;2023-06-05T14:56:53;38.50;42.20
27162;DHT22;54464;50.558;9.704;2023-06-05T14:59:21;38.70;43.50
27162;DHT22;54464;50.558;9.704;2023-06-05T15:01:53;39.20;42.70
27162;DHT22;54464;50.558;9.704;2023-06-05T15:04:19;38.80;42.90
27162;DHT22;54464;50.558;9.704;2023-06-05T15:06:44;38.10;42.60
27162;DHT22;54464;50.558;9.704;2023-06-05T15:09:12;38.80;43.50
27162;DHT22;54464;50.558;9.704;2023-06-05T15:11:53;38.20;42.70
27162;DHT22;54464;50.558;9.704;2023-06-05T15:14:21;39.20;41.80
27162;DHT22;54464;50.558;9.704;2023-06-05T15:16:47;38.90;41.80
27162;DHT22;54464;50.558;9.704;2023-06-05T15:19:15;38.50;43.60
27162;DHT22;54464;50.558;9.704;2023-06-05T15:21:43;39.40;43.50
27162;DHT22;54464;50.558;9.704;2023-06-05T15:24:09;40.20;42.50
27162;DHT22;54464;50.558;9.704;2023-06-05T15:26:40;39.90;41.80
27162;DHT22;54464;50.558;9.704;2023-06-05T15:29:05;38.80;43.10
27162;DHT22;54464;50.558;9.704;2023-06-05T15:31:33;38.20;43.40
27162;DHT22;54464;50.558;9.704;2023-06-05T15:33:59;38.40;43.30
27162;DHT22;54464;50.558;9.704;2023-06-05T15:36:25;38.30;44.40
27162;DHT22;54464;50.558;9.704;2023-06-05T15:38:51;38.50;43.30
27162;DHT22;54464;50.558;9.704;2023-06-05T15:41:21;38.40;43.50
27162;DHT22;54464;50.558;9.704;2023-06-05T15:43:46;38.20;42.90
27162;DHT22;54464;50.558;9.704;2023-06-05T15:46:12;38.60;42.80
27162;DHT22;54464;50.558;9.704;2023-06-05T15:48:41;39.10;43.00
27162;DHT22;54464;50.558;9.704;2023-06-05T15:51:09;39.60;43.20
27162;DHT22;54464;50.558;9.704;2023-06-05T15:53:35;39.80;42.70
27162;DHT22;54464;50.558;9.704;2023-06-05T15:56:00;40.10;42.80
27162;DHT22;54464;50.558;9.704;2023-06-05T15:58:27;39.50;43.70
27162;DHT22;54464;50.558;9.704;2023-06-05T16:00:52;39.70;43.40
27162;DHT22;54464;50.558;9.704;2023-06-05T16:03:18;39.30;43.10
27162;DHT22;54464;50.558;9.704;2023-06-05T16:05:45;40.00;42.80
27162;DHT22;54464;50.558;9.704;2023-06-05T16:08:11;40.10;42.50